createdAt,value
2023-05-02T00:00:54.763Z,99.90
2023-05-02T00:01:56.966Z,99.90
2023-05-02T00:03:00.112Z,99.90
2023-05-02T00:04:02.561Z,99.90
2023-05-02T00:05:06.561Z,99.90
2023-05-02T00:06:09.830Z,99.90
2023-05-02T00:07:11.974Z,99.90
2023-05-02T00:08:16.275Z,99.90
2023-05-02T00:09:18.492Z,99.90
2023-05-02T00:10:21.518Z,99.90
2023-05-02T00:11:24.410Z,99.90
2023-05-02T00:12:28.746Z,99.90
2023-05-02T00:13:30.852Z,99.90
2023-05-02T00:14:33.957Z,99.90
2023-05-02T00:15:36.135Z,99.90
2023-05-02T00:16:39.220Z,99.90
2023-05-02T00:17:42.043Z,99.90
2023-05-02T00:18:45.133Z,99.90
2023-05-02T00:19:47.685Z,99.90
2023-05-02T00:20:51.710Z,99.90
2023-05-02T00:21:53.985Z,99.90
2023-05-02T00:22:57.401Z,99.90
2023-05-02T00:24:00.072Z,99.90
2023-05-02T00:25:03.421Z,99.90
2023-05-02T00:26:09.113Z,99.90
2023-05-02T00:27:14.271Z,99.90
2023-05-02T00:28:18.207Z,99.90
2023-05-02T00:29:21.272Z,99.90
2023-05-02T00:30:23.605Z,99.90
2023-05-02T00:31:26.663Z,99.90
2023-05-02T00:32:29.100Z,99.90
2023-05-02T00:33:32.325Z,99.90
2023-05-02T00:34:34.393Z,99.90
2023-05-02T00:35:37.399Z,99.90
2023-05-02T00:36:40.632Z,99.90
2023-05-02T00:37:42.767Z,99.90
2023-05-02T00:38:45.931Z,99.90
2023-05-02T00:39:47.971Z,99.90
2023-05-02T00:40:52.884Z,99.90
2023-05-02T00:41:58.056Z,99.90
2023-05-02T00:43:01.323Z,99.90
2023-05-02T00:44:06.100Z,99.90
2023-05-02T00:45:08.906Z,99.90
2023-05-02T00:46:13.027Z,99.90
2023-05-02T00:47:15.718Z,99.90
2023-05-02T00:48:20.574Z,99.90
2023-05-02T00:49:22.928Z,99.90
2023-05-02T00:50:28.168Z,99.90
2023-05-02T00:51:30.456Z,99.90
2023-05-02T00:52:34.260Z,99.90
2023-05-02T00:53:36.831Z,99.90
2023-05-02T00:54:40.416Z,99.90
2023-05-02T00:55:43.514Z,99.90
2023-05-02T00:56:46.826Z,99.90
2023-05-02T00:57:50.091Z,99.90
2023-05-02T00:58:53.652Z,99.90
2023-05-02T00:59:57.657Z,99.90
2023-05-02T01:01:09.455Z,99.90
2023-05-02T01:02:29.973Z,99.90
2023-05-02T01:03:42.289Z,99.90
2023-05-02T01:04:54.946Z,99.90
2023-05-02T01:06:05.244Z,99.90
2023-05-02T01:07:22.276Z,99.90
2023-05-02T01:08:34.308Z,99.90
2023-05-02T01:09:46.210Z,99.90
2023-05-02T01:10:53.250Z,99.90
2023-05-02T01:12:03.935Z,99.90
2023-05-02T01:13:10.430Z,99.90
2023-05-02T01:14:15.404Z,99.90
2023-05-02T01:15:22.390Z,99.90
2023-05-02T01:16:26.101Z,99.90
2023-05-02T01:17:32.630Z,99.90
2023-05-02T01:18:39.731Z,99.90
2023-05-02T01:19:48.029Z,99.90
2023-05-02T01:20:57.269Z,99.90
2023-05-02T01:22:01.206Z,99.90
2023-05-02T01:23:11.424Z,99.90
2023-05-02T01:24:22.486Z,99.90
2023-05-02T01:25:33.569Z,99.90
2023-05-02T01:26:43.868Z,99.90
2023-05-02T01:27:58.037Z,99.90
2023-05-02T01:29:02.626Z,99.90
2023-05-02T01:30:08.060Z,99.90
2023-05-02T01:31:12.115Z,99.90
2023-05-02T01:32:17.353Z,99.90
2023-05-02T01:33:21.187Z,99.90
2023-05-02T01:34:25.006Z,99.90
2023-05-02T01:35:28.137Z,99.90
2023-05-02T01:36:33.263Z,99.90
2023-05-02T01:37:38.198Z,99.90
2023-05-02T01:38:43.510Z,99.90
2023-05-02T01:39:49.458Z,99.90
2023-05-02T01:40:53.683Z,99.90
2023-05-02T01:41:58.373Z,99.90
2023-05-02T01:43:05.161Z,99.90
2023-05-02T01:44:10.358Z,99.90
2023-05-02T01:45:15.199Z,99.90
2023-05-02T01:46:19.000Z,99.90
2023-05-02T01:47:23.243Z,99.90
2023-05-02T01:48:28.275Z,99.90
2023-05-02T01:49:33.878Z,99.90
2023-05-02T01:50:37.560Z,99.90
2023-05-02T01:51:46.690Z,99.90
2023-05-02T01:52:51.632Z,99.90
2023-05-02T01:53:55.511Z,99.90
2023-05-02T01:54:59.132Z,99.90
2023-05-02T01:56:03.966Z,99.90
2023-05-02T01:57:08.136Z,99.90
2023-05-02T01:58:13.193Z,99.90
2023-05-02T01:59:19.981Z,99.90
2023-05-02T02:00:25.344Z,99.90
2023-05-02T02:01:28.924Z,99.90
2023-05-02T02:02:33.881Z,99.90
2023-05-02T02:03:36.028Z,99.90
2023-05-02T02:04:41.375Z,99.90
2023-05-02T02:05:46.982Z,99.90
2023-05-02T02:06:56.551Z,99.90
2023-05-02T02:07:58.999Z,99.90
2023-05-02T02:09:03.721Z,99.90
2023-05-02T02:10:06.992Z,99.90
2023-05-02T02:11:12.974Z,99.90
2023-05-02T02:12:22.831Z,99.90
2023-05-02T02:13:31.014Z,99.90
2023-05-02T02:14:38.477Z,99.90
2023-05-02T02:15:43.742Z,99.90
2023-05-02T02:16:46.395Z,99.90
2023-05-02T02:17:58.330Z,99.90
2023-05-02T02:19:06.821Z,99.90
2023-05-02T02:20:13.075Z,99.90
2023-05-02T02:21:19.079Z,99.90
2023-05-02T02:22:24.260Z,99.90
2023-05-02T02:23:28.954Z,99.90
2023-05-02T02:24:33.169Z,99.90
2023-05-02T02:25:36.062Z,99.90
2023-05-02T02:26:39.251Z,99.90
2023-05-02T02:27:41.410Z,99.90
2023-05-02T02:28:44.845Z,99.90
2023-05-02T02:29:48.328Z,99.90
2023-05-02T02:30:51.588Z,99.90
2023-05-02T02:31:54.670Z,99.90
2023-05-02T02:32:56.703Z,99.90
2023-05-02T02:34:00.591Z,99.90
2023-05-02T02:35:03.552Z,99.90
2023-05-02T02:36:11.552Z,99.90
2023-05-02T02:37:18.085Z,99.90
2023-05-02T02:38:28.718Z,99.90
2023-05-02T02:39:42.218Z,99.90
2023-05-02T02:40:51.152Z,99.90
2023-05-02T02:42:04.145Z,99.90
2023-05-02T02:43:13.086Z,99.90
2023-05-02T02:44:26.229Z,99.90
2023-05-02T02:45:36.628Z,99.90
2023-05-02T02:46:49.746Z,99.90
2023-05-02T02:48:01.648Z,99.90
2023-05-02T02:49:16.252Z,99.90
2023-05-02T02:50:28.107Z,99.90
2023-05-02T02:51:35.890Z,99.90
2023-05-02T02:52:48.851Z,99.90
2023-05-02T02:53:58.309Z,99.90
2023-05-02T02:55:08.428Z,99.90
2023-05-02T02:56:15.870Z,99.90
2023-05-02T02:57:25.346Z,99.90
2023-05-02T02:58:38.265Z,99.90
2023-05-02T02:59:47.414Z,99.90
2023-05-02T03:00:51.780Z,99.90
2023-05-02T03:02:05.131Z,99.90
2023-05-02T03:03:08.580Z,99.90
2023-05-02T03:04:13.284Z,99.90
2023-05-02T03:05:16.760Z,99.90
2023-05-02T03:06:20.828Z,99.90
2023-05-02T03:07:23.426Z,99.90
2023-05-02T03:08:26.924Z,99.90
2023-05-02T03:09:33.571Z,99.90
2023-05-02T03:10:36.596Z,99.90
2023-05-02T03:11:38.788Z,99.90
2023-05-02T03:12:43.590Z,99.90
2023-05-02T03:13:45.757Z,99.90
2023-05-02T03:14:51.814Z,99.90
2023-05-02T03:16:25.163Z,99.90
2023-05-02T03:17:28.241Z,99.90
2023-05-02T03:18:30.583Z,99.90
2023-05-02T03:19:33.872Z,99.90
2023-05-02T03:20:36.690Z,99.90
2023-05-02T03:21:40.243Z,99.90
2023-05-02T03:22:48.619Z,99.90
2023-05-02T03:23:51.580Z,99.90
2023-05-02T03:24:53.657Z,99.90
2023-05-02T03:25:56.726Z,99.90
2023-05-02T03:27:00.611Z,99.90
2023-05-02T03:28:09.392Z,99.90
2023-05-02T03:29:11.515Z,99.90
2023-05-02T03:30:17.844Z,99.90
2023-05-02T03:31:21.916Z,99.90
2023-05-02T03:32:25.258Z,99.90
2023-05-02T03:33:27.348Z,99.90
2023-05-02T03:34:30.376Z,99.90
2023-05-02T03:35:32.701Z,99.90
2023-05-02T03:36:35.675Z,99.90
2023-05-02T03:37:37.732Z,99.90
2023-05-02T03:38:40.968Z,99.90
2023-05-02T03:39:47.221Z,99.90
2023-05-02T03:40:49.309Z,99.90
2023-05-02T03:41:52.319Z,99.90
2023-05-02T03:42:57.608Z,99.90
2023-05-02T03:44:06.351Z,99.90
2023-05-02T03:45:09.202Z,99.90
2023-05-02T03:46:12.395Z,99.90
2023-05-02T03:47:20.493Z,99.90
2023-05-02T03:48:23.707Z,99.90
2023-05-02T03:49:25.705Z,99.90
2023-05-02T03:50:30.080Z,99.90
2023-05-02T03:51:33.764Z,99.90
2023-05-02T03:52:37.070Z,99.90
2023-05-02T03:53:40.088Z,99.90
2023-05-02T03:54:43.659Z,99.90
2023-05-02T03:55:46.771Z,99.90
2023-05-02T03:56:58.088Z,99.90
2023-05-02T03:58:04.718Z,99.90
2023-05-02T03:59:07.777Z,99.90
2023-05-02T04:00:11.157Z,99.90
2023-05-02T04:01:23.612Z,99.90
2023-05-02T04:02:28.297Z,99.90
2023-05-02T04:03:32.318Z,99.90
2023-05-02T04:04:36.943Z,99.90
2023-05-02T04:05:40.268Z,99.90
2023-05-02T04:06:42.557Z,99.90
2023-05-02T04:07:46.124Z,99.90
2023-05-02T04:08:48.651Z,99.90
2023-05-02T04:09:51.654Z,99.90
2023-05-02T04:10:53.651Z,99.90
2023-05-02T04:11:56.694Z,99.90
2023-05-02T04:12:58.924Z,99.90
2023-05-02T04:14:02.382Z,99.90
2023-05-02T04:15:04.852Z,99.90
2023-05-02T04:16:08.528Z,99.90
2023-05-02T04:17:12.001Z,99.90
2023-05-02T04:18:21.376Z,99.90
2023-05-02T04:19:23.385Z,99.90
2023-05-02T04:20:26.973Z,99.90
2023-05-02T04:21:30.324Z,99.90
2023-05-02T04:22:34.148Z,99.90
2023-05-02T04:23:39.871Z,99.90
2023-05-02T04:24:42.870Z,99.90
2023-05-02T04:25:51.875Z,99.90
2023-05-02T04:26:55.748Z,99.90
2023-05-02T04:27:58.875Z,99.90
2023-05-02T04:29:01.396Z,99.90
2023-05-02T04:30:04.818Z,99.90
2023-05-02T04:31:07.592Z,99.90
2023-05-02T04:32:11.552Z,99.90
2023-05-02T04:33:13.829Z,99.90
2023-05-02T04:34:18.182Z,99.90
2023-05-02T04:35:21.336Z,99.90
2023-05-02T04:36:25.016Z,99.90
2023-05-02T04:37:27.451Z,99.90
2023-05-02T04:38:30.535Z,99.90
2023-05-02T04:39:32.598Z,99.90
2023-05-02T04:40:39.199Z,99.90
2023-05-02T04:41:43.745Z,99.90
2023-05-02T04:42:46.262Z,99.90
2023-05-02T04:43:58.505Z,99.90
2023-05-02T04:45:01.313Z,99.90
2023-05-02T04:46:04.490Z,99.90
2023-05-02T04:47:10.770Z,99.90
2023-05-02T04:48:15.730Z,99.90
2023-05-02T04:49:19.208Z,99.90
2023-05-02T04:50:22.192Z,99.90
2023-05-02T04:51:24.288Z,99.90
2023-05-02T04:52:27.268Z,99.90
2023-05-02T04:53:29.894Z,99.90
2023-05-02T04:54:33.865Z,99.90
2023-05-02T04:55:36.808Z,99.90
2023-05-02T04:56:39.397Z,99.90
2023-05-02T04:57:42.619Z,99.90
2023-05-02T04:58:48.464Z,99.90
2023-05-02T04:59:51.558Z,99.90
2023-05-02T05:00:54.785Z,99.90
2023-05-02T05:01:57.977Z,99.90
2023-05-02T05:03:01.669Z,99.90
2023-05-02T05:04:05.926Z,99.90
2023-05-02T05:05:09.993Z,99.90
2023-05-02T05:06:13.330Z,99.90
2023-05-02T05:07:16.228Z,99.90
2023-05-02T05:08:21.828Z,99.90
2023-05-02T05:09:23.915Z,99.90
2023-05-02T05:10:27.064Z,99.90
2023-05-02T05:11:29.221Z,99.90
2023-05-02T05:12:32.273Z,99.90
2023-05-02T05:13:34.333Z,99.90
2023-05-02T05:14:37.326Z,99.90
2023-05-02T05:15:40.120Z,99.90
2023-05-02T05:16:43.469Z,99.90
2023-05-02T05:17:46.578Z,99.90
2023-05-02T05:18:49.581Z,99.90
2023-05-02T05:19:51.662Z,99.90
2023-05-02T05:20:55.998Z,99.90
2023-05-02T05:21:58.087Z,99.90
2023-05-02T05:23:01.092Z,99.90
2023-05-02T05:24:03.572Z,99.90
2023-05-02T05:25:07.259Z,99.90
2023-05-02T05:26:10.823Z,99.90
2023-05-02T05:27:14.360Z,99.90
2023-05-02T05:28:16.508Z,99.90
2023-05-02T05:29:19.881Z,99.90
2023-05-02T05:30:22.345Z,99.90
2023-05-02T05:31:25.384Z,99.90
2023-05-02T05:32:31.507Z,99.90
2023-05-02T05:33:33.719Z,99.90
2023-05-02T05:34:37.615Z,99.90
2023-05-02T05:35:40.660Z,99.90
2023-05-02T05:36:44.218Z,99.90
2023-05-02T05:37:47.190Z,98.60
2023-05-02T05:38:51.579Z,94.10
2023-05-02T05:39:55.365Z,90.60
2023-05-02T05:40:58.006Z,85.90
2023-05-02T05:42:02.582Z,79.70
2023-05-02T05:43:06.385Z,76.50
2023-05-02T05:44:11.837Z,71.70
2023-05-02T05:45:17.039Z,69.30
2023-05-02T05:46:19.163Z,66.10
2023-05-02T05:47:22.986Z,62.20
2023-05-02T05:48:26.612Z,60.20
2023-05-02T05:49:30.530Z,59.60
2023-05-02T05:50:32.515Z,57.90
2023-05-02T05:51:36.635Z,56.20
2023-05-02T05:52:40.303Z,55.00
2023-05-02T05:53:43.539Z,54.60
2023-05-02T05:54:47.541Z,54.70
2023-05-02T05:55:50.621Z,54.80
2023-05-02T05:56:55.134Z,54.80
2023-05-02T05:57:57.547Z,53.80
2023-05-02T05:59:00.583Z,52.10
2023-05-02T06:00:02.952Z,52.70
2023-05-02T06:01:18.787Z,52.00
2023-05-02T06:02:21.213Z,51.40
2023-05-02T06:03:24.316Z,52.10
2023-05-02T06:04:26.856Z,52.50
2023-05-02T06:05:30.275Z,53.30
2023-05-02T06:06:32.723Z,54.10
2023-05-02T06:07:35.844Z,54.70
2023-05-02T06:08:39.233Z,55.10
2023-05-02T06:09:42.346Z,55.50
2023-05-02T06:10:44.818Z,57.00
2023-05-02T06:11:47.810Z,58.50
2023-05-02T06:12:50.182Z,59.40
2023-05-02T06:13:55.948Z,59.40
2023-05-02T06:14:58.208Z,62.60
2023-05-02T06:16:02.625Z,65.20
2023-05-02T06:17:05.916Z,70.00
2023-05-02T06:18:09.663Z,74.70
2023-05-02T06:19:12.698Z,78.40
2023-05-02T06:20:16.565Z,82.20
2023-05-02T06:21:19.856Z,86.70
2023-05-02T06:22:22.826Z,90.70
2023-05-02T06:23:24.924Z,92.10
2023-05-02T06:24:29.271Z,93.80
2023-05-02T06:25:32.864Z,94.70
2023-05-02T06:26:36.381Z,96.80
2023-05-02T06:27:38.423Z,97.00
2023-05-02T06:28:41.392Z,99.20
2023-05-02T06:29:43.516Z,99.90
2023-05-02T06:30:46.470Z,99.30
2023-05-02T06:31:51.022Z,99.20
2023-05-02T06:32:53.114Z,99.70
2023-05-02T06:33:56.169Z,99.60
2023-05-02T06:34:58.293Z,98.00
2023-05-02T06:36:02.152Z,94.10
2023-05-02T06:37:06.036Z,93.30
2023-05-02T06:38:08.069Z,93.00
2023-05-02T06:39:11.440Z,92.90
2023-05-02T06:40:15.189Z,92.50
2023-05-02T06:41:18.961Z,92.00
2023-05-02T06:42:20.961Z,90.50
2023-05-02T06:43:23.995Z,90.40
2023-05-02T06:44:26.135Z,88.70
2023-05-02T06:45:29.133Z,90.00
2023-05-02T06:46:31.693Z,88.90
2023-05-02T06:47:34.846Z,89.20
2023-05-02T06:48:36.944Z,87.80
2023-05-02T06:49:39.929Z,87.40
2023-05-02T06:50:42.001Z,87.20
2023-05-02T06:51:45.012Z,86.50
2023-05-02T06:52:47.038Z,85.50
2023-05-02T06:53:50.035Z,85.90
2023-05-02T06:54:52.054Z,87.60
2023-05-02T06:55:56.439Z,89.70
2023-05-02T06:56:59.285Z,87.70
2023-05-02T06:58:02.392Z,85.30
2023-05-02T06:59:05.285Z,86.00
2023-05-02T07:00:09.510Z,85.30
2023-05-02T07:01:12.573Z,85.00
2023-05-02T07:02:15.656Z,86.50
2023-05-02T07:03:17.775Z,87.10
2023-05-02T07:04:20.963Z,86.90
2023-05-02T07:05:23.094Z,86.00
2023-05-02T07:06:26.338Z,85.80
2023-05-02T07:07:28.484Z,83.40
2023-05-02T07:08:31.518Z,79.20
2023-05-02T07:09:33.600Z,76.00
2023-05-02T07:10:36.574Z,70.40
2023-05-02T07:11:39.968Z,67.50
2023-05-02T07:12:43.073Z,65.60
2023-05-02T07:13:46.104Z,62.90
2023-05-02T07:14:49.095Z,59.90
2023-05-02T07:15:52.129Z,58.60
2023-05-02T07:16:54.339Z,58.00
2023-05-02T07:17:57.460Z,57.50
2023-05-02T07:19:00.161Z,56.70
2023-05-02T07:20:03.985Z,56.80
2023-05-02T07:21:07.380Z,56.00
2023-05-02T07:22:09.486Z,54.50
2023-05-02T07:23:12.450Z,52.90
2023-05-02T07:24:15.710Z,51.40
2023-05-02T07:25:18.936Z,50.40
2023-05-02T07:26:21.083Z,48.30
2023-05-02T07:27:25.771Z,48.10
2023-05-02T07:28:28.858Z,47.70
2023-05-02T07:29:30.869Z,48.00
2023-05-02T07:30:34.017Z,47.60
2023-05-02T07:31:36.065Z,47.40
2023-05-02T07:32:39.265Z,48.20
2023-05-02T07:33:42.249Z,48.80
2023-05-02T07:34:45.132Z,49.10
2023-05-02T07:35:48.158Z,49.40
2023-05-02T07:36:50.224Z,50.30
2023-05-02T07:37:53.207Z,50.40
2023-05-02T07:38:56.198Z,51.00
2023-05-02T07:39:58.558Z,51.30
2023-05-02T07:41:02.277Z,50.60
2023-05-02T07:42:06.523Z,49.30
2023-05-02T07:43:11.249Z,49.00
2023-05-02T07:44:14.437Z,48.00
2023-05-02T07:45:16.517Z,47.90
2023-05-02T07:46:19.572Z,48.20
2023-05-02T07:47:21.755Z,48.20
2023-05-02T07:48:27.071Z,46.90
2023-05-02T07:49:31.039Z,46.10
2023-05-02T07:50:34.007Z,44.90
2023-05-02T07:51:36.264Z,46.10
2023-05-02T07:52:39.326Z,47.50
2023-05-02T07:53:41.464Z,46.90
2023-05-02T07:54:44.434Z,46.10
2023-05-02T07:55:47.730Z,45.30
2023-05-02T07:56:49.746Z,44.80
2023-05-02T07:57:52.722Z,44.70
2023-05-02T07:58:57.066Z,43.40
2023-05-02T08:00:00.423Z,43.80
2023-05-02T08:01:03.953Z,43.40
2023-05-02T08:02:07.170Z,41.70
2023-05-02T08:03:10.384Z,41.90
2023-05-02T08:04:13.593Z,42.30
2023-05-02T08:05:16.827Z,42.10
2023-05-02T08:06:19.977Z,42.50
2023-05-02T08:07:22.968Z,42.80
2023-05-02T08:08:26.028Z,42.10
2023-05-02T08:09:29.050Z,41.10
2023-05-02T08:10:32.088Z,40.20
2023-05-02T08:11:35.157Z,39.80
2023-05-02T08:12:40.312Z,40.30
2023-05-02T08:13:43.390Z,42.10
2023-05-02T08:14:47.747Z,43.60
2023-05-02T08:15:50.837Z,44.80
2023-05-02T08:16:53.060Z,45.80
2023-05-02T08:17:56.121Z,47.30
2023-05-02T08:18:59.211Z,49.00
2023-05-02T08:20:02.442Z,50.20
2023-05-02T08:21:06.302Z,51.20
2023-05-02T08:22:09.287Z,51.70
2023-05-02T08:23:12.257Z,52.20
2023-05-02T08:24:14.258Z,53.10
2023-05-02T08:25:17.269Z,54.10
2023-05-02T08:26:21.830Z,54.80
2023-05-02T08:27:24.895Z,54.60
2023-05-02T08:28:27.893Z,55.10
2023-05-02T08:29:32.046Z,55.00
2023-05-02T08:30:36.376Z,54.50
2023-05-02T08:31:39.616Z,53.60
2023-05-02T08:32:42.688Z,52.40
2023-05-02T08:33:44.988Z,50.60
2023-05-02T08:34:48.048Z,49.20
2023-05-02T08:35:51.214Z,48.80
2023-05-02T08:36:55.137Z,48.20
2023-05-02T08:37:59.831Z,49.10
2023-05-02T08:39:02.813Z,49.90
2023-05-02T08:40:06.004Z,50.30
2023-05-02T08:41:11.716Z,50.80
2023-05-02T08:42:14.933Z,50.90
2023-05-02T08:43:18.638Z,50.50
2023-05-02T08:44:22.150Z,50.60
2023-05-02T08:45:24.746Z,51.00
2023-05-02T08:46:30.076Z,51.10
2023-05-02T08:47:33.640Z,51.00
2023-05-02T08:48:37.389Z,50.50
2023-05-02T08:49:41.094Z,50.50
2023-05-02T08:50:45.661Z,50.20
2023-05-02T08:51:51.584Z,50.50
2023-05-02T08:52:54.143Z,50.40
2023-05-02T08:53:58.203Z,50.00
2023-05-02T08:55:02.515Z,49.40
2023-05-02T08:56:06.286Z,48.40
2023-05-02T08:57:09.325Z,46.80
2023-05-02T08:58:11.908Z,44.70
2023-05-02T08:59:15.790Z,42.50
2023-05-02T09:00:19.102Z,40.70
2023-05-02T09:01:24.733Z,39.10
2023-05-02T09:02:43.738Z,38.60
2023-05-02T09:03:47.885Z,38.50
2023-05-02T09:04:55.180Z,38.10
2023-05-02T09:06:06.493Z,37.20
2023-05-02T09:07:10.916Z,37.00
2023-05-02T09:08:13.066Z,36.80
2023-05-02T09:09:18.452Z,37.90
2023-05-02T09:10:21.969Z,39.30
2023-05-02T09:11:25.001Z,39.00
2023-05-02T09:12:27.134Z,39.10
2023-05-02T09:13:36.822Z,40.00
2023-05-02T09:14:39.251Z,40.00
2023-05-02T09:15:42.256Z,40.30
2023-05-02T09:16:45.333Z,40.30
2023-05-02T09:17:49.172Z,40.40
2023-05-02T09:18:53.668Z,39.70
2023-05-02T09:20:00.728Z,39.80
2023-05-02T09:21:08.828Z,40.30
2023-05-02T09:22:11.082Z,40.10
2023-05-02T09:23:14.258Z,40.30
2023-05-02T09:24:19.153Z,40.40
2023-05-02T09:25:21.323Z,39.70
2023-05-02T09:26:27.932Z,38.30
2023-05-02T09:27:51.038Z,37.50
2023-05-02T09:28:55.777Z,37.00
2023-05-02T09:30:20.368Z,36.50
2023-05-02T09:31:43.447Z,35.60
2023-05-02T09:32:52.263Z,36.30
2023-05-02T09:33:55.737Z,37.60
2023-05-02T09:35:08.937Z,37.70
2023-05-02T09:36:15.152Z,38.90
2023-05-02T09:37:36.553Z,40.30
2023-05-02T09:38:39.838Z,41.50
2023-05-02T09:39:43.022Z,41.80
2023-05-02T09:40:54.844Z,42.40
2023-05-02T09:41:58.748Z,42.70
2023-05-02T09:43:15.627Z,43.00
2023-05-02T09:44:20.268Z,42.40
2023-05-02T09:45:24.121Z,41.90
2023-05-02T09:46:27.240Z,41.20
2023-05-02T09:47:30.760Z,40.20
2023-05-02T09:48:53.679Z,38.50
2023-05-02T09:49:56.652Z,38.80
2023-05-02T09:50:59.853Z,39.80
2023-05-02T09:52:12.297Z,40.80
2023-05-02T09:53:15.324Z,41.60
2023-05-02T09:54:37.247Z,42.00
2023-05-02T09:55:39.681Z,42.70
2023-05-02T09:56:56.656Z,43.10
2023-05-02T09:57:59.525Z,43.00
2023-05-02T09:59:23.988Z,43.00
2023-05-02T10:00:39.588Z,43.80
2023-05-02T10:01:43.269Z,43.80
2023-05-02T10:02:48.383Z,42.70
2023-05-02T10:03:53.872Z,41.30
2023-05-02T10:04:58.011Z,40.90
2023-05-02T10:06:02.417Z,40.40
2023-05-02T10:07:06.646Z,40.10
2023-05-02T10:08:10.371Z,40.40
2023-05-02T10:09:19.692Z,40.00
2023-05-02T10:10:23.863Z,39.60
2023-05-02T10:11:27.176Z,39.10
2023-05-02T10:12:32.410Z,39.10
2023-05-02T10:13:37.665Z,39.10
2023-05-02T10:14:42.221Z,39.60
2023-05-02T10:15:46.006Z,40.30
2023-05-02T10:16:56.650Z,38.90
2023-05-02T10:18:00.290Z,38.80
2023-05-02T10:19:10.093Z,38.90
2023-05-02T10:20:19.068Z,39.20
2023-05-02T10:21:27.338Z,39.00
2023-05-02T10:22:31.067Z,39.30
2023-05-02T10:23:35.550Z,39.00
2023-05-02T10:24:41.306Z,38.90
2023-05-02T10:25:44.624Z,39.00
2023-05-02T10:26:47.358Z,38.90
2023-05-02T10:27:50.725Z,39.10
2023-05-02T10:28:54.826Z,39.30
2023-05-02T10:29:58.993Z,39.70
2023-05-02T10:31:03.725Z,39.40
2023-05-02T10:32:08.016Z,38.40
2023-05-02T10:33:11.192Z,37.80
2023-05-02T10:34:16.964Z,38.10
2023-05-02T10:35:19.701Z,38.40
2023-05-02T10:36:23.698Z,38.80
2023-05-02T10:37:26.465Z,39.10
2023-05-02T10:38:29.549Z,39.30
2023-05-02T10:39:32.664Z,39.50
2023-05-02T10:40:35.746Z,40.40
2023-05-02T10:41:39.705Z,40.60
2023-05-02T10:42:46.489Z,40.80
2023-05-02T10:43:50.623Z,41.40
2023-05-02T10:44:52.725Z,41.90
2023-05-02T10:45:56.356Z,41.90
2023-05-02T10:46:58.574Z,41.60
2023-05-02T10:48:17.766Z,41.40
2023-05-02T10:49:23.793Z,42.60
2023-05-02T10:50:43.417Z,43.50
2023-05-02T10:51:46.461Z,44.10
2023-05-02T10:52:49.602Z,44.70
2023-05-02T10:53:52.634Z,45.20
2023-05-02T10:55:17.781Z,45.10
2023-05-02T10:56:22.224Z,45.10
2023-05-02T10:57:24.285Z,46.10
2023-05-02T10:58:27.279Z,46.30
2023-05-02T10:59:31.207Z,46.90
2023-05-02T11:00:35.139Z,45.80
2023-05-02T11:01:42.131Z,46.50
2023-05-02T11:02:48.874Z,45.20
2023-05-02T11:03:56.388Z,44.90
2023-05-02T11:05:05.707Z,44.90
2023-05-02T11:06:09.622Z,44.60
2023-05-02T11:07:19.846Z,44.20
2023-05-02T11:08:32.600Z,44.10
2023-05-02T11:09:34.712Z,44.50
2023-05-02T11:10:37.805Z,44.70
2023-05-02T11:11:41.521Z,44.10
2023-05-02T11:12:46.316Z,43.50
2023-05-02T11:13:51.560Z,43.80
2023-05-02T11:14:54.643Z,43.50
2023-05-02T11:15:57.120Z,43.30
2023-05-02T11:17:12.307Z,43.50
2023-05-02T11:18:16.184Z,44.10
2023-05-02T11:19:18.302Z,44.90
2023-05-02T11:20:22.803Z,45.30
2023-05-02T11:21:27.880Z,45.70
2023-05-02T11:22:33.297Z,46.10
2023-05-02T11:23:37.238Z,46.80
2023-05-02T11:24:39.953Z,47.10
2023-05-02T11:25:44.698Z,46.20
2023-05-02T11:26:47.547Z,46.40
2023-05-02T11:27:50.644Z,47.00
2023-05-02T11:28:53.628Z,46.80
2023-05-02T11:29:56.538Z,47.40
2023-05-02T11:30:59.542Z,47.40
2023-05-02T11:32:01.751Z,48.30
2023-05-02T11:33:16.057Z,48.90
2023-05-02T11:34:20.434Z,49.70
2023-05-02T11:35:26.704Z,49.90
2023-05-02T11:36:30.743Z,50.10
2023-05-02T11:37:33.453Z,48.60
2023-05-02T11:38:38.226Z,48.70
2023-05-02T11:39:40.671Z,49.20
2023-05-02T11:40:55.936Z,49.10
2023-05-02T11:41:58.936Z,48.40
2023-05-02T11:43:01.466Z,47.90
2023-05-02T11:44:04.856Z,47.40
2023-05-02T11:45:07.582Z,47.10
2023-05-02T11:46:11.711Z,46.00
2023-05-02T11:47:13.803Z,45.00
2023-05-02T11:48:19.563Z,45.10
2023-05-02T11:49:22.585Z,43.40
2023-05-02T11:50:30.232Z,42.30
2023-05-02T11:51:33.352Z,42.50
2023-05-02T11:52:38.213Z,41.60
2023-05-02T11:53:42.589Z,40.90
2023-05-02T11:54:44.722Z,40.30
2023-05-02T11:55:49.981Z,39.70
2023-05-02T11:56:52.989Z,38.90
2023-05-02T11:57:56.231Z,38.30
2023-05-02T11:58:59.780Z,37.90
2023-05-02T12:00:03.977Z,37.50
2023-05-02T12:01:14.260Z,37.60
2023-05-02T12:02:16.522Z,38.50
2023-05-02T12:03:29.809Z,39.00
2023-05-02T12:04:32.403Z,40.90
2023-05-02T12:05:36.859Z,41.50
2023-05-02T12:06:40.140Z,41.00
2023-05-02T12:07:44.867Z,41.30
2023-05-02T12:08:49.006Z,41.50
2023-05-02T12:09:52.185Z,41.40
2023-05-02T12:10:56.786Z,40.40
2023-05-02T12:11:58.922Z,40.40
2023-05-02T12:13:06.544Z,40.20
2023-05-02T12:14:10.093Z,40.20
2023-05-02T12:15:13.123Z,41.20
2023-05-02T12:16:16.931Z,41.30
2023-05-02T12:17:19.159Z,41.30
2023-05-02T12:18:24.514Z,40.40
2023-05-02T12:19:28.320Z,39.80
2023-05-02T12:20:30.619Z,40.30
2023-05-02T12:21:35.740Z,40.10
2023-05-02T12:22:38.167Z,39.30
2023-05-02T12:23:42.201Z,39.80
2023-05-02T12:24:44.544Z,39.60
2023-05-02T12:25:48.608Z,39.50
2023-05-02T12:27:08.410Z,39.70
2023-05-02T12:28:12.194Z,39.70
2023-05-02T12:29:15.194Z,39.90
2023-05-02T12:30:26.368Z,39.70
2023-05-02T12:31:31.495Z,39.50
2023-05-02T12:32:35.061Z,39.90
2023-05-02T12:33:43.750Z,40.20
2023-05-02T12:34:46.150Z,39.70
2023-05-02T12:35:49.397Z,39.70
2023-05-02T12:36:52.765Z,39.80
2023-05-02T12:37:57.005Z,39.50
2023-05-02T12:39:01.493Z,39.90
2023-05-02T12:40:14.802Z,39.60
2023-05-02T12:41:17.946Z,39.80
2023-05-02T12:42:22.437Z,39.60
2023-05-02T12:43:24.791Z,39.30
2023-05-02T12:44:38.596Z,39.70
2023-05-02T12:45:41.668Z,39.00
2023-05-02T12:46:58.485Z,38.50
2023-05-02T12:48:02.303Z,39.10
2023-05-02T12:49:08.058Z,38.40
2023-05-02T12:50:10.628Z,38.90
2023-05-02T12:51:24.665Z,38.50
2023-05-02T12:52:51.030Z,38.90
2023-05-02T12:53:54.045Z,38.50
2023-05-02T12:55:18.295Z,38.40
2023-05-02T12:56:22.135Z,38.00
2023-05-02T12:57:26.129Z,37.60
2023-05-02T12:58:28.576Z,37.50
2023-05-02T12:59:33.121Z,38.10
2023-05-02T13:00:37.707Z,37.60
2023-05-02T13:01:41.282Z,37.20
2023-05-02T13:02:43.533Z,38.00
2023-05-02T13:03:46.747Z,37.60
2023-05-02T13:04:50.083Z,37.80
2023-05-02T13:05:55.440Z,37.70
2023-05-02T13:06:57.541Z,36.90
2023-05-02T13:08:02.350Z,37.10
2023-05-02T13:09:04.868Z,36.90
2023-05-02T13:10:08.961Z,36.80
2023-05-02T13:11:13.016Z,37.00
2023-05-02T13:12:16.617Z,37.60
2023-05-02T13:13:19.675Z,38.70
2023-05-02T13:14:21.847Z,39.60
2023-05-02T13:15:24.973Z,39.70
2023-05-02T13:16:27.312Z,38.90
2023-05-02T13:17:30.476Z,38.70
2023-05-02T13:18:33.716Z,37.80
2023-05-02T13:19:37.352Z,38.10
2023-05-02T13:20:41.754Z,37.90
2023-05-02T13:21:44.929Z,37.80
2023-05-02T13:22:48.086Z,37.40
2023-05-02T13:23:52.255Z,37.10
2023-05-02T13:24:55.901Z,37.50
2023-05-02T13:25:59.011Z,37.20
2023-05-02T13:27:02.031Z,37.30
2023-05-02T13:28:06.384Z,37.40
2023-05-02T13:29:11.598Z,37.20
2023-05-02T13:30:14.670Z,37.40
2023-05-02T13:31:17.710Z,37.60
2023-05-02T13:32:19.924Z,38.20
2023-05-02T13:33:23.019Z,38.20
2023-05-02T13:34:25.872Z,36.90
2023-05-02T13:35:28.873Z,37.10
2023-05-02T13:36:31.002Z,36.60
2023-05-02T13:37:34.128Z,35.90
2023-05-02T13:38:36.303Z,34.90
2023-05-02T13:39:40.795Z,35.40
2023-05-02T13:40:43.877Z,35.50
2023-05-02T13:41:46.823Z,35.20
2023-05-02T13:42:49.816Z,35.10
2023-05-02T13:43:51.901Z,35.50
2023-05-02T13:44:54.912Z,35.40
2023-05-02T13:45:57.488Z,35.80
2023-05-02T13:47:00.698Z,35.50
2023-05-02T13:48:03.796Z,35.40
2023-05-02T13:49:06.071Z,35.50
2023-05-02T13:50:09.893Z,36.10
2023-05-02T13:51:12.222Z,36.40
2023-05-02T13:52:15.260Z,36.80
2023-05-02T13:53:17.313Z,36.50
2023-05-02T13:54:20.925Z,35.80